sensor_id;sensor_type;location;lat;lon;timestamp;temperature;humidity
58413;DHT22;44209;52.952;6.790;2023-04-24T00:01:32;10.90;99.90
58413;DHT22;44209;52.952;6.790;2023-04-24T00:03:59;10.80;99.90
58413;DHT22;44209;52.952;6.790;2023-04-24T00:06:26;10.80;99.90
58413;DHT22;44209;52.952;6.790;2023-04-24T00:08:59;10.80;99.90
58413;DHT22;44209;52.952;6.790;2023-04-24T00:11:26;10.70;99.90
58413;DHT22;44209;52.952;6.790;2023-04-24T00:13:52;10.70;99.90
58413;DHT22;44209;52.952;6.790;2023-04-24T00:16:18;10.70;99.90
58413;DHT22;44209;52.952;6.790;2023-04-24T00:18:44;10.60;99.90
58413;DHT22;44209;52.952;6.790;2023-04-24T00:21:11;10.60;99.90
58413;DHT22;44209;52.952;6.790;2023-04-24T00:23:36;10.60;99.90
58413;DHT22;44209;52.952;6.790;2023-04-24T00:26:02;10.50;99.90
58413;DHT22;44209;52.952;6.790;2023-04-24T00:28:28;10.50;99.90
58413;DHT22;44209;52.952;6.790;2023-04-24T00:30:54;10.50;99.90
58413;DHT22;44209;52.952;6.790;2023-04-24T00:33:19;10.50;99.90
58413;DHT22;44209;52.952;6.790;2023-04-24T00:35:45;10.50;99.90
58413;DHT22;44209;52.952;6.790;2023-04-24T00:38:11;10.50;99.90
58413;DHT22;44209;52.952;6.790;2023-04-24T00:40:37;10.40;99.90
58413;DHT22;44209;52.952;6.790;2023-04-24T00:43:03;10.50;99.90
58413;DHT22;44209;52.952;6.790;2023-04-24T00:45:29;10.50;99.90
58413;DHT22;44209;52.952;6.790;2023-04-24T00:47:57;10.50;99.90
58413;DHT22;44209;52.952;6.790;2023-04-24T00:50:24;10.50;99.90
58413;DHT22;44209;52.952;6.790;2023-04-24T00:52:50;10.40;99.90
58413;DHT22;44209;52.952;6.790;2023-04-24T00:55:17;10.40;99.90
58413;DHT22;44209;52.952;6.790;2023-04-24T00:57:43;10.40;99.90
58413;DHT22;44209;52.952;6.790;2023-04-24T01:00:09;10.50;99.90
58413;DHT22;44209;52.952;6.790;2023-04-24T01:02:40;10.50;99.90
58413;DHT22;44209;52.952;6.790;2023-04-24T01:05:09;10.40;99.90
58413;DHT22;44209;52.952;6.790;2023-04-24T01:07:35;10.50;99.90
58413;DHT22;44209;52.952;6.790;2023-04-24T01:10:02;10.50;99.90
58413;DHT22;44209;52.952;6.790;2023-04-24T01:12:28;10.50;99.90
58413;DHT22;44209;52.952;6.790;2023-04-24T01:14:54;10.50;99.90
58413;DHT22;44209;52.952;6.790;2023-04-24T01:17:22;10.60;99.90
58413;DHT22;44209;52.952;6.790;2023-04-24T01:19:48;10.50;99.90
58413;DHT22;44209;52.952;6.790;2023-04-24T01:22:14;10.50;99.90
58413;DHT22;44209;52.952;6.790;2023-04-24T01:24:41;10.60;99.90
58413;DHT22;44209;52.952;6.790;2023-04-24T01:27:08;10.60;99.90
58413;DHT22;44209;52.952;6.790;2023-04-24T01:29:34;10.60;99.90
58413;DHT22;44209;52.952;6.790;2023-04-24T01:32:00;10.60;99.90
58413;DHT22;44209;52.952;6.790;2023-04-24T01:34:26;10.60;99.90
58413;DHT22;44209;52.952;6.790;2023-04-24T01:36:52;10.60;99.90
58413;DHT22;44209;52.952;6.790;2023-04-24T01:39:18;10.60;99.90
58413;DHT22;44209;52.952;6.790;2023-04-24T01:41:46;10.60;99.90
58413;DHT22;44209;52.952;6.790;2023-04-24T01:44:11;10.60;99.90
58413;DHT22;44209;52.952;6.790;2023-04-24T01:46:37;10.60;99.90
58413;DHT22;44209;52.952;6.790;2023-04-24T01:49:03;10.50;99.90
58413;DHT22;44209;52.952;6.790;2023-04-24T01:51:29;10.50;99.90
58413;DHT22;44209;52.952;6.790;2023-04-24T01:53:55;10.40;99.90
58413;DHT22;44209;52.952;6.790;2023-04-24T01:56:22;10.40;99.90
58413;DHT22;44209;52.952;6.790;2023-04-24T01:58:49;10.40;99.90
58413;DHT22;44209;52.952;6.790;2023-04-24T02:01:19;10.30;99.90
58413;DHT22;44209;52.952;6.790;2023-04-24T02:03:45;10.30;99.90
58413;DHT22;44209;52.952;6.790;2023-04-24T02:06:11;10.20;99.90
58413;DHT22;44209;52.952;6.790;2023-04-24T02:08:37;10.20;99.90
58413;DHT22;44209;52.952;6.790;2023-04-24T02:11:02;10.20;99.90
58413;DHT22;44209;52.952;6.790;2023-04-24T02:13:28;10.10;99.90
58413;DHT22;44209;52.952;6.790;2023-04-24T02:15:54;10.10;99.90
58413;DHT22;44209;52.952;6.790;2023-04-24T02:18:20;10.10;99.90
58413;DHT22;44209;52.952;6.790;2023-04-24T02:20:46;10.10;99.90
58413;DHT22;44209;52.952;6.790;2023-04-24T02:23:11;10.00;99.90
58413;DHT22;44209;52.952;6.790;2023-04-24T02:25:38;10.00;99.90
58413;DHT22;44209;52.952;6.790;2023-04-24T02:28:04;10.10;99.90
58413;DHT22;44209;52.952;6.790;2023-04-24T02:30:30;10.00;99.90
58413;DHT22;44209;52.952;6.790;2023-04-24T02:32:56;10.00;99.90
58413;DHT22;44209;52.952;6.790;2023-04-24T02:35:21;10.00;99.90
58413;DHT22;44209;52.952;6.790;2023-04-24T02:37:47;10.00;99.90
58413;DHT22;44209;52.952;6.790;2023-04-24T02:40:13;10.00;99.90
58413;DHT22;44209;52.952;6.790;2023-04-24T02:42:39;10.00;99.90
58413;DHT22;44209;52.952;6.790;2023-04-24T02:45:05;10.00;99.90
58413;DHT22;44209;52.952;6.790;2023-04-24T02:47:31;9.90;99.90
58413;DHT22;44209;52.952;6.790;2023-04-24T02:49:56;9.90;99.90
58413;DHT22;44209;52.952;6.790;2023-04-24T02:52:22;9.90;99.90
58413;DHT22;44209;52.952;6.790;2023-04-24T02:54:48;9.90;99.90
58413;DHT22;44209;52.952;6.790;2023-04-24T02:57:13;9.90;99.90
58413;DHT22;44209;52.952;6.790;2023-04-24T02:59:39;9.90;99.90
58413;DHT22;44209;52.952;6.790;2023-04-24T03:02:05;9.90;99.90
58413;DHT22;44209;52.952;6.790;2023-04-24T03:04:31;9.90;99.90
58413;DHT22;44209;52.952;6.790;2023-04-24T03:06:57;9.90;99.90
58413;DHT22;44209;52.952;6.790;2023-04-24T03:09:24;9.90;99.90
58413;DHT22;44209;52.952;6.790;2023-04-24T03:11:50;9.90;99.90
58413;DHT22;44209;52.952;6.790;2023-04-24T03:14:16;9.90;99.90
58413;DHT22;44209;52.952;6.790;2023-04-24T03:16:42;9.90;99.90
58413;DHT22;44209;52.952;6.790;2023-04-24T03:19:07;9.90;99.90
58413;DHT22;44209;52.952;6.790;2023-04-24T03:21:33;9.80;99.90
58413;DHT22;44209;52.952;6.790;2023-04-24T03:24:01;9.80;99.90
58413;DHT22;44209;52.952;6.790;2023-04-24T03:26:26;9.80;99.90
58413;DHT22;44209;52.952;6.790;2023-04-24T03:28:52;9.80;99.90
58413;DHT22;44209;52.952;6.790;2023-04-24T03:31:18;9.90;99.90
58413;DHT22;44209;52.952;6.790;2023-04-24T03:33:44;9.80;99.90
58413;DHT22;44209;52.952;6.790;2023-04-24T03:36:10;9.80;99.90
58413;DHT22;44209;52.952;6.790;2023-04-24T03:38:35;9.80;99.90
58413;DHT22;44209;52.952;6.790;2023-04-24T03:41:01;9.80;99.90
58413;DHT22;44209;52.952;6.790;2023-04-24T03:43:27;9.80;99.90
58413;DHT22;44209;52.952;6.790;2023-04-24T03:45:53;9.80;99.90
58413;DHT22;44209;52.952;6.790;2023-04-24T03:48:18;9.80;99.90
58413;DHT22;44209;52.952;6.790;2023-04-24T03:50:44;9.80;99.90
58413;DHT22;44209;52.952;6.790;2023-04-24T03:53:10;9.80;99.90
58413;DHT22;44209;52.952;6.790;2023-04-24T03:55:35;9.80;99.90
58413;DHT22;44209;52.952;6.790;2023-04-24T03:58:01;9.70;99.90
58413;DHT22;44209;52.952;6.790;2023-04-24T04:00:27;9.70;99.90
58413;DHT22;44209;52.952;6.790;2023-04-24T04:02:53;9.70;99.90
58413;DHT22;44209;52.952;6.790;2023-04-24T04:05:18;9.70;99.90
58413;DHT22;44209;52.952;6.790;2023-04-24T04:07:45;9.70;99.90
58413;DHT22;44209;52.952;6.790;2023-04-24T04:10:10;9.70;99.90
58413;DHT22;44209;52.952;6.790;2023-04-24T04:12:36;9.70;99.90
58413;DHT22;44209;52.952;6.790;2023-04-24T04:15:02;9.70;99.90
58413;DHT22;44209;52.952;6.790;2023-04-24T04:17:27;9.70;99.90
58413;DHT22;44209;52.952;6.790;2023-04-24T04:19:53;9.70;99.90
58413;DHT22;44209;52.952;6.790;2023-04-24T04:22:19;9.70;99.90
58413;DHT22;44209;52.952;6.790;2023-04-24T04:24:44;9.70;99.90
58413;DHT22;44209;52.952;6.790;2023-04-24T04:27:11;9.70;99.90
58413;DHT22;44209;52.952;6.790;2023-04-24T04:29:37;9.70;99.90
58413;DHT22;44209;52.952;6.790;2023-04-24T04:32:03;9.70;99.90
58413;DHT22;44209;52.952;6.790;2023-04-24T04:34:29;9.70;99.90
58413;DHT22;44209;52.952;6.790;2023-04-24T04:36:57;9.70;99.90
58413;DHT22;44209;52.952;6.790;2023-04-24T04:39:26;9.70;99.90
58413;DHT22;44209;52.952;6.790;2023-04-24T04:41:53;9.70;99.90
58413;DHT22;44209;52.952;6.790;2023-04-24T04:44:19;9.70;99.90
58413;DHT22;44209;52.952;6.790;2023-04-24T04:46:45;9.70;99.90
58413;DHT22;44209;52.952;6.790;2023-04-24T04:49:11;9.70;99.90
58413;DHT22;44209;52.952;6.790;2023-04-24T04:51:37;9.70;99.90
58413;DHT22;44209;52.952;6.790;2023-04-24T04:54:02;9.70;99.90
58413;DHT22;44209;52.952;6.790;2023-04-24T04:56:28;9.70;99.90
58413;DHT22;44209;52.952;6.790;2023-04-24T04:58:54;9.70;99.90
58413;DHT22;44209;52.952;6.790;2023-04-24T05:01:19;9.70;99.90
58413;DHT22;44209;52.952;6.790;2023-04-24T05:03:45;9.70;99.90
58413;DHT22;44209;52.952;6.790;2023-04-24T05:06:11;9.70;99.90
58413;DHT22;44209;52.952;6.790;2023-04-24T05:08:36;9.70;99.90
58413;DHT22;44209;52.952;6.790;2023-04-24T05:11:02;9.70;99.90
58413;DHT22;44209;52.952;6.790;2023-04-24T05:13:28;9.70;99.90
58413;DHT22;44209;52.952;6.790;2023-04-24T05:15:53;9.70;99.90
58413;DHT22;44209;52.952;6.790;2023-04-24T05:18:19;9.60;99.90
58413;DHT22;44209;52.952;6.790;2023-04-24T05:20:45;9.60;99.90
58413;DHT22;44209;52.952;6.790;2023-04-24T05:23:10;9.70;99.90
58413;DHT22;44209;52.952;6.790;2023-04-24T05:25:37;9.60;99.90
58413;DHT22;44209;52.952;6.790;2023-04-24T05:28:04;9.60;99.90
58413;DHT22;44209;52.952;6.790;2023-04-24T05:30:30;9.70;99.90
58413;DHT22;44209;52.952;6.790;2023-04-24T05:32:56;9.60;99.90
58413;DHT22;44209;52.952;6.790;2023-04-24T05:35:21;9.60;99.90
58413;DHT22;44209;52.952;6.790;2023-04-24T05:37:47;9.60;99.90
58413;DHT22;44209;52.952;6.790;2023-04-24T05:40:13;9.70;99.90
58413;DHT22;44209;52.952;6.790;2023-04-24T05:42:38;9.60;99.90
58413;DHT22;44209;52.952;6.790;2023-04-24T05:45:05;9.60;99.90
58413;DHT22;44209;52.952;6.790;2023-04-24T05:47:31;9.60;99.90
58413;DHT22;44209;52.952;6.790;2023-04-24T05:49:56;9.70;99.90
58413;DHT22;44209;52.952;6.790;2023-04-24T05:52:22;9.70;99.90
58413;DHT22;44209;52.952;6.790;2023-04-24T05:54:47;9.70;99.90
58413;DHT22;44209;52.952;6.790;2023-04-24T05:57:13;9.70;99.90
58413;DHT22;44209;52.952;6.790;2023-04-24T05:59:40;9.70;99.90
58413;DHT22;44209;52.952;6.790;2023-04-24T06:02:07;9.80;99.90
58413;DHT22;44209;52.952;6.790;2023-04-24T06:04:33;9.80;99.90
58413;DHT22;44209;52.952;6.790;2023-04-24T06:06:59;9.80;99.90
58413;DHT22;44209;52.952;6.790;2023-04-24T06:09:25;9.80;99.90
58413;DHT22;44209;52.952;6.790;2023-04-24T06:11:51;9.80;99.90
58413;DHT22;44209;52.952;6.790;2023-04-24T06:14:20;9.80;99.90
58413;DHT22;44209;52.952;6.790;2023-04-24T06:16:45;9.80;99.90
58413;DHT22;44209;52.952;6.790;2023-04-24T06:19:11;9.80;99.90
58413;DHT22;44209;52.952;6.790;2023-04-24T06:21:37;9.80;99.90
58413;DHT22;44209;52.952;6.790;2023-04-24T06:24:03;9.80;99.90
58413;DHT22;44209;52.952;6.790;2023-04-24T06:26:29;9.80;99.90
58413;DHT22;44209;52.952;6.790;2023-04-24T06:28:55;9.80;99.90
58413;DHT22;44209;52.952;6.790;2023-04-24T06:31:22;9.90;99.90
58413;DHT22;44209;52.952;6.790;2023-04-24T06:33:48;9.90;99.90
58413;DHT22;44209;52.952;6.790;2023-04-24T06:36:15;9.90;99.90
58413;DHT22;44209;52.952;6.790;2023-04-24T06:38:41;9.90;99.90
58413;DHT22;44209;52.952;6.790;2023-04-24T06:41:07;9.90;99.90
58413;DHT22;44209;52.952;6.790;2023-04-24T06:43:33;10.00;99.90
58413;DHT22;44209;52.952;6.790;2023-04-24T06:45:59;10.00;99.90
58413;DHT22;44209;52.952;6.790;2023-04-24T06:48:25;10.00;99.90
58413;DHT22;44209;52.952;6.790;2023-04-24T06:50:52;10.00;99.90
58413;DHT22;44209;52.952;6.790;2023-04-24T06:53:18;10.00;99.90
58413;DHT22;44209;52.952;6.790;2023-04-24T06:55:44;10.10;99.90
58413;DHT22;44209;52.952;6.790;2023-04-24T06:58:11;10.00;99.90
58413;DHT22;44209;52.952;6.790;2023-04-24T07:00:37;10.10;99.90
58413;DHT22;44209;52.952;6.790;2023-04-24T07:03:03;10.10;99.90
58413;DHT22;44209;52.952;6.790;2023-04-24T07:05:31;10.10;99.90
58413;DHT22;44209;52.952;6.790;2023-04-24T07:07:56;10.20;99.90
58413;DHT22;44209;52.952;6.790;2023-04-24T07:10:25;10.10;99.90
58413;DHT22;44209;52.952;6.790;2023-04-24T07:12:55;10.10;99.90
58413;DHT22;44209;52.952;6.790;2023-04-24T07:15:22;10.10;99.90
58413;DHT22;44209;52.952;6.790;2023-04-24T07:17:48;10.10;99.90
58413;DHT22;44209;52.952;6.790;2023-04-24T07:20:15;10.10;99.90
58413;DHT22;44209;52.952;6.790;2023-04-24T07:22:41;10.10;99.90
58413;DHT22;44209;52.952;6.790;2023-04-24T07:25:07;10.10;99.90
58413;DHT22;44209;52.952;6.790;2023-04-24T07:27:33;10.10;99.90
58413;DHT22;44209;52.952;6.790;2023-04-24T07:29:59;10.20;99.90
58413;DHT22;44209;52.952;6.790;2023-04-24T07:32:25;10.10;99.90
58413;DHT22;44209;52.952;6.790;2023-04-24T07:34:50;10.20;99.90
58413;DHT22;44209;52.952;6.790;2023-04-24T07:37:16;10.20;99.90
58413;DHT22;44209;52.952;6.790;2023-04-24T07:39:42;10.20;99.90
58413;DHT22;44209;52.952;6.790;2023-04-24T07:42:08;10.20;99.90
58413;DHT22;44209;52.952;6.790;2023-04-24T07:44:33;10.30;99.90
58413;DHT22;44209;52.952;6.790;2023-04-24T07:46:59;10.30;99.90
58413;DHT22;44209;52.952;6.790;2023-04-24T07:49:25;10.20;99.90
58413;DHT22;44209;52.952;6.790;2023-04-24T07:51:51;10.20;99.90
58413;DHT22;44209;52.952;6.790;2023-04-24T07:54:16;10.20;99.90
58413;DHT22;44209;52.952;6.790;2023-04-24T07:56:43;10.10;99.90
58413;DHT22;44209;52.952;6.790;2023-04-24T07:59:09;10.10;99.90
58413;DHT22;44209;52.952;6.790;2023-04-24T08:01:35;10.10;99.90
58413;DHT22;44209;52.952;6.790;2023-04-24T08:04:01;10.00;99.90
58413;DHT22;44209;52.952;6.790;2023-04-24T08:06:27;10.00;99.90
58413;DHT22;44209;52.952;6.790;2023-04-24T08:08:59;10.00;99.90
58413;DHT22;44209;52.952;6.790;2023-04-24T08:11:25;10.00;99.90
58413;DHT22;44209;52.952;6.790;2023-04-24T08:13:51;10.00;99.90
58413;DHT22;44209;52.952;6.790;2023-04-24T08:16:17;10.00;99.90
58413;DHT22;44209;52.952;6.790;2023-04-24T08:18:43;10.00;99.90
58413;DHT22;44209;52.952;6.790;2023-04-24T08:21:08;10.00;99.90
58413;DHT22;44209;52.952;6.790;2023-04-24T08:23:34;10.00;99.90
58413;DHT22;44209;52.952;6.790;2023-04-24T08:26:00;10.00;99.90
58413;DHT22;44209;52.952;6.790;2023-04-24T08:28:26;10.00;99.90
58413;DHT22;44209;52.952;6.790;2023-04-24T08:30:51;10.00;99.90
58413;DHT22;44209;52.952;6.790;2023-04-24T08:33:21;10.00;99.90
58413;DHT22;44209;52.952;6.790;2023-04-24T08:35:47;9.90;99.90
58413;DHT22;44209;52.952;6.790;2023-04-24T08:38:13;9.90;99.90
58413;DHT22;44209;52.952;6.790;2023-04-24T08:40:38;9.80;99.90
58413;DHT22;44209;52.952;6.790;2023-04-24T08:43:05;9.80;99.90
58413;DHT22;44209;52.952;6.790;2023-04-24T08:45:32;9.70;99.90
58413;DHT22;44209;52.952;6.790;2023-04-24T08:47:59;9.70;99.90
58413;DHT22;44209;52.952;6.790;2023-04-24T08:50:25;9.60;99.90
58413;DHT22;44209;52.952;6.790;2023-04-24T08:52:52;9.60;99.90
58413;DHT22;44209;52.952;6.790;2023-04-24T08:55:19;9.60;99.90
58413;DHT22;44209;52.952;6.790;2023-04-24T08:57:50;9.60;99.90
58413;DHT22;44209;52.952;6.790;2023-04-24T09:00:17;9.50;99.90
58413;DHT22;44209;52.952;6.790;2023-04-24T09:02:43;9.50;99.90
58413;DHT22;44209;52.952;6.790;2023-04-24T09:05:11;9.60;99.90
58413;DHT22;44209;52.952;6.790;2023-04-24T09:07:39;9.50;99.90
58413;DHT22;44209;52.952;6.790;2023-04-24T09:10:07;9.50;99.90
58413;DHT22;44209;52.952;6.790;2023-04-24T09:12:34;9.50;99.90
58413;DHT22;44209;52.952;6.790;2023-04-24T09:15:01;9.40;99.90
58413;DHT22;44209;52.952;6.790;2023-04-24T09:17:30;9.40;99.90
58413;DHT22;44209;52.952;6.790;2023-04-24T09:19:55;9.30;99.90
58413;DHT22;44209;52.952;6.790;2023-04-24T09:22:21;9.20;99.90
58413;DHT22;44209;52.952;6.790;2023-04-24T09:24:47;9.20;99.90
58413;DHT22;44209;52.952;6.790;2023-04-24T09:27:13;9.10;99.90
58413;DHT22;44209;52.952;6.790;2023-04-24T09:29:57;9.20;99.90
58413;DHT22;44209;52.952;6.790;2023-04-24T09:32:24;9.10;99.90
58413;DHT22;44209;52.952;6.790;2023-04-24T09:35:08;9.10;99.90
58413;DHT22;44209;52.952;6.790;2023-04-24T09:37:43;9.10;99.90
58413;DHT22;44209;52.952;6.790;2023-04-24T09:40:14;9.10;99.90
58413;DHT22;44209;52.952;6.790;2023-04-24T09:42:43;9.10;99.90
58413;DHT22;44209;52.952;6.790;2023-04-24T09:45:10;9.00;99.90
58413;DHT22;44209;52.952;6.790;2023-04-24T09:47:38;9.00;99.90
58413;DHT22;44209;52.952;6.790;2023-04-24T09:50:14;9.10;99.90
58413;DHT22;44209;52.952;6.790;2023-04-24T09:53:02;9.10;99.90
58413;DHT22;44209;52.952;6.790;2023-04-24T09:55:28;9.10;99.90
58413;DHT22;44209;52.952;6.790;2023-04-24T09:57:56;9.10;99.90
58413;DHT22;44209;52.952;6.790;2023-04-24T10:05:35;9.20;99.90
58413;DHT22;44209;52.952;6.790;2023-04-24T10:10:29;9.20;99.90
58413;DHT22;44209;52.952;6.790;2023-04-24T10:12:55;9.20;99.90
58413;DHT22;44209;52.952;6.790;2023-04-24T10:15:21;9.10;99.90
58413;DHT22;44209;52.952;6.790;2023-04-24T10:17:49;9.20;99.90
58413;DHT22;44209;52.952;6.790;2023-04-24T10:20:38;9.20;99.90
58413;DHT22;44209;52.952;6.790;2023-04-24T10:23:05;9.30;99.90
58413;DHT22;44209;52.952;6.790;2023-04-24T10:25:33;9.20;99.90
58413;DHT22;44209;52.952;6.790;2023-04-24T10:28:00;9.20;99.90
58413;DHT22;44209;52.952;6.790;2023-04-24T10:30:28;9.20;99.90
58413;DHT22;44209;52.952;6.790;2023-04-24T10:32:54;9.20;99.90
58413;DHT22;44209;52.952;6.790;2023-04-24T10:35:20;9.20;99.90
58413;DHT22;44209;52.952;6.790;2023-04-24T10:38:03;9.20;99.90
58413;DHT22;44209;52.952;6.790;2023-04-24T10:40:35;9.30;99.90
58413;DHT22;44209;52.952;6.790;2023-04-24T10:43:08;9.40;99.90
58413;DHT22;44209;52.952;6.790;2023-04-24T10:45:37;9.50;99.90
58413;DHT22;44209;52.952;6.790;2023-04-24T10:48:07;9.50;99.90
58413;DHT22;44209;52.952;6.790;2023-04-24T10:50:53;9.50;99.90
58413;DHT22;44209;52.952;6.790;2023-04-24T10:53:21;9.60;99.90
58413;DHT22;44209;52.952;6.790;2023-04-24T10:56:04;9.60;99.90
58413;DHT22;44209;52.952;6.790;2023-04-24T10:58:37;9.60;99.90
58413;DHT22;44209;52.952;6.790;2023-04-24T11:01:04;9.60;99.90
58413;DHT22;44209;52.952;6.790;2023-04-24T11:03:31;9.50;99.90
58413;DHT22;44209;52.952;6.790;2023-04-24T11:05:58;9.50;99.90
58413;DHT22;44209;52.952;6.790;2023-04-24T11:10:59;9.50;99.90
58413;DHT22;44209;52.952;6.790;2023-04-24T11:13:32;9.40;99.90
58413;DHT22;44209;52.952;6.790;2023-04-24T11:16:21;9.50;99.90
58413;DHT22;44209;52.952;6.790;2023-04-24T11:18:51;9.40;99.90
58413;DHT22;44209;52.952;6.790;2023-04-24T11:21:19;9.40;99.90
58413;DHT22;44209;52.952;6.790;2023-04-24T11:23:46;9.50;99.90
58413;DHT22;44209;52.952;6.790;2023-04-24T11:26:21;9.50;99.90
58413;DHT22;44209;52.952;6.790;2023-04-24T11:28:50;9.70;99.90
58413;DHT22;44209;52.952;6.790;2023-04-24T11:31:38;9.80;99.90
58413;DHT22;44209;52.952;6.790;2023-04-24T11:34:13;10.00;99.90
58413;DHT22;44209;52.952;6.790;2023-04-24T11:36:42;10.00;99.90
58413;DHT22;44209;52.952;6.790;2023-04-24T11:39:08;10.00;99.90
58413;DHT22;44209;52.952;6.790;2023-04-24T11:41:34;9.90;99.90
58413;DHT22;44209;52.952;6.790;2023-04-24T11:44:01;9.80;99.90
58413;DHT22;44209;52.952;6.790;2023-04-24T11:46:29;9.70;99.90
58413;DHT22;44209;52.952;6.790;2023-04-24T11:49:13;9.70;99.90
58413;DHT22;44209;52.952;6.790;2023-04-24T11:51:38;9.70;99.90
58413;DHT22;44209;52.952;6.790;2023-04-24T11:54:07;9.60;99.90
58413;DHT22;44209;52.952;6.790;2023-04-24T11:56:33;9.70;99.90
58413;DHT22;44209;52.952;6.790;2023-04-24T11:58:59;9.80;99.90
58413;DHT22;44209;52.952;6.790;2023-04-24T12:01:24;9.80;99.90
58413;DHT22;44209;52.952;6.790;2023-04-24T12:03:51;9.90;99.90
58413;DHT22;44209;52.952;6.790;2023-04-24T12:06:24;9.90;99.90
58413;DHT22;44209;52.952;6.790;2023-04-24T12:08:52;9.90;99.90
58413;DHT22;44209;52.952;6.790;2023-04-24T12:11:20;9.90;99.90
58413;DHT22;44209;52.952;6.790;2023-04-24T12:13:46;9.80;99.90
58413;DHT22;44209;52.952;6.790;2023-04-24T12:16:11;9.80;99.90
58413;DHT22;44209;52.952;6.790;2023-04-24T12:18:42;9.80;99.90
58413;DHT22;44209;52.952;6.790;2023-04-24T12:21:19;9.70;99.90
58413;DHT22;44209;52.952;6.790;2023-04-24T12:23:46;9.60;99.90
58413;DHT22;44209;52.952;6.790;2023-04-24T12:26:19;9.60;99.90
58413;DHT22;44209;52.952;6.790;2023-04-24T12:28:47;9.60;99.90
58413;DHT22;44209;52.952;6.790;2023-04-24T12:31:15;9.50;99.90
58413;DHT22;44209;52.952;6.790;2023-04-24T12:33:41;9.50;99.90
58413;DHT22;44209;52.952;6.790;2023-04-24T12:36:09;9.50;99.90
58413;DHT22;44209;52.952;6.790;2023-04-24T12:38:35;9.50;99.90
58413;DHT22;44209;52.952;6.790;2023-04-24T12:41:07;9.50;99.90
58413;DHT22;44209;52.952;6.790;2023-04-24T12:43:34;9.60;99.90
58413;DHT22;44209;52.952;6.790;2023-04-24T12:46:00;9.60;99.90
58413;DHT22;44209;52.952;6.790;2023-04-24T12:48:26;9.60;99.90
58413;DHT22;44209;52.952;6.790;2023-04-24T12:50:52;9.60;99.90
58413;DHT22;44209;52.952;6.790;2023-04-24T12:53:18;9.70;99.90
58413;DHT22;44209;52.952;6.790;2023-04-24T12:55:44;9.70;99.90
58413;DHT22;44209;52.952;6.790;2023-04-24T12:58:10;9.80;99.90
58413;DHT22;44209;52.952;6.790;2023-04-24T13:00:36;9.70;99.90
58413;DHT22;44209;52.952;6.790;2023-04-24T13:03:02;9.70;99.90
58413;DHT22;44209;52.952;6.790;2023-04-24T13:05:28;9.70;99.90
58413;DHT22;44209;52.952;6.790;2023-04-24T13:07:54;9.70;99.90
58413;DHT22;44209;52.952;6.790;2023-04-24T13:10:20;9.80;99.90
58413;DHT22;44209;52.952;6.790;2023-04-24T13:12:45;9.80;99.90
58413;DHT22;44209;52.952;6.790;2023-04-24T13:15:12;9.70;99.90
58413;DHT22;44209;52.952;6.790;2023-04-24T13:17:37;9.80;99.90
58413;DHT22;44209;52.952;6.790;2023-04-24T13:20:05;9.80;99.90
58413;DHT22;44209;52.952;6.790;2023-04-24T13:22:31;9.70;99.90
58413;DHT22;44209;52.952;6.790;2023-04-24T13:24:56;9.70;99.90
58413;DHT22;44209;52.952;6.790;2023-04-24T13:27:22;9.70;99.90
58413;DHT22;44209;52.952;6.790;2023-04-24T13:29:48;9.60;99.90
58413;DHT22;44209;52.952;6.790;2023-04-24T13:32:14;9.70;99.90
58413;DHT22;44209;52.952;6.790;2023-04-24T13:34:40;9.70;99.90
58413;DHT22;44209;52.952;6.790;2023-04-24T13:37:06;9.80;99.90
58413;DHT22;44209;52.952;6.790;2023-04-24T13:39:33;9.80;99.90
58413;DHT22;44209;52.952;6.790;2023-04-24T13:41:58;9.90;99.90
58413;DHT22;44209;52.952;6.790;2023-04-24T13:44:25;9.90;99.90
58413;DHT22;44209;52.952;6.790;2023-04-24T13:46:52;9.90;99.90
58413;DHT22;44209;52.952;6.790;2023-04-24T13:49:20;9.90;99.90
58413;DHT22;44209;52.952;6.790;2023-04-24T13:51:46;9.90;99.90
58413;DHT22;44209;52.952;6.790;2023-04-24T13:54:11;9.90;99.90
58413;DHT22;44209;52.952;6.790;2023-04-24T13:56:38;9.90;99.90
58413;DHT22;44209;52.952;6.790;2023-04-24T13:59:04;9.90;99.90
58413;DHT22;44209;52.952;6.790;2023-04-24T14:01:30;9.90;99.90
58413;DHT22;44209;52.952;6.790;2023-04-24T14:03:56;9.90;99.90
58413;DHT22;44209;52.952;6.790;2023-04-24T14:06:22;10.00;99.90
58413;DHT22;44209;52.952;6.790;2023-04-24T14:08:48;10.00;99.90
58413;DHT22;44209;52.952;6.790;2023-04-24T14:11:14;10.10;99.90
58413;DHT22;44209;52.952;6.790;2023-04-24T14:13:44;10.20;99.90
58413;DHT22;44209;52.952;6.790;2023-04-24T14:16:10;10.30;99.90
58413;DHT22;44209;52.952;6.790;2023-04-24T14:18:36;10.40;99.90
58413;DHT22;44209;52.952;6.790;2023-04-24T14:21:03;10.50;99.90
58413;DHT22;44209;52.952;6.790;2023-04-24T14:23:28;10.50;99.90
58413;DHT22;44209;52.952;6.790;2023-04-24T14:25:54;10.40;99.90
58413;DHT22;44209;52.952;6.790;2023-04-24T14:28:20;10.40;99.90
58413;DHT22;44209;52.952;6.790;2023-04-24T14:30:47;10.40;99.90
58413;DHT22;44209;52.952;6.790;2023-04-24T14:33:13;10.20;99.90
58413;DHT22;44209;52.952;6.790;2023-04-24T14:35:40;10.20;99.90
58413;DHT22;44209;52.952;6.790;2023-04-24T14:38:07;10.10;99.90
58413;DHT22;44209;52.952;6.790;2023-04-24T14:40:33;10.00;99.90
58413;DHT22;44209;52.952;6.790;2023-04-24T14:42:58;10.00;99.90
58413;DHT22;44209;52.952;6.790;2023-04-24T14:45:27;9.90;99.90
58413;DHT22;44209;52.952;6.790;2023-04-24T14:47:53;9.80;99.90
58413;DHT22;44209;52.952;6.790;2023-04-24T14:50:20;9.80;99.90
58413;DHT22;44209;52.952;6.790;2023-04-24T14:52:46;9.80;99.90
58413;DHT22;44209;52.952;6.790;2023-04-24T14:55:12;9.70;99.90
58413;DHT22;44209;52.952;6.790;2023-04-24T14:57:38;9.70;99.90
58413;DHT22;44209;52.952;6.790;2023-04-24T15:00:07;9.60;99.90
58413;DHT22;44209;52.952;6.790;2023-04-24T15:02:34;9.50;99.90
58413;DHT22;44209;52.952;6.790;2023-04-24T15:05:02;9.50;99.90
58413;DHT22;44209;52.952;6.790;2023-04-24T15:07:29;9.40;99.90
58413;DHT22;44209;52.952;6.790;2023-04-24T15:09:55;9.40;99.90
58413;DHT22;44209;52.952;6.790;2023-04-24T15:12:21;9.40;99.90
58413;DHT22;44209;52.952;6.790;2023-04-24T15:14:47;9.40;99.90
58413;DHT22;44209;52.952;6.790;2023-04-24T15:17:13;9.40;99.90
58413;DHT22;44209;52.952;6.790;2023-04-24T15:19:38;9.40;99.90
58413;DHT22;44209;52.952;6.790;2023-04-24T15:22:04;9.40;99.90
58413;DHT22;44209;52.952;6.790;2023-04-24T15:24:30;9.30;99.90
58413;DHT22;44209;52.952;6.790;2023-04-24T15:26:55;9.30;99.90
58413;DHT22;44209;52.952;6.790;2023-04-24T15:29:21;9.20;99.90
58413;DHT22;44209;52.952;6.790;2023-04-24T15:31:47;9.10;99.90
58413;DHT22;44209;52.952;6.790;2023-04-24T15:34:13;9.10;99.90
58413;DHT22;44209;52.952;6.790;2023-04-24T15:36:38;9.20;99.90
58413;DHT22;44209;52.952;6.790;2023-04-24T15:39:04;9.10;99.90
58413;DHT22;44209;52.952;6.790;2023-04-24T15:41:30;9.10;99.90
58413;DHT22;44209;52.952;6.790;2023-04-24T15:43:57;9.10;99.90
58413;DHT22;44209;52.952;6.790;2023-04-24T15:46:23;9.10;99.90
58413;DHT22;44209;52.952;6.790;2023-04-24T15:48:48;9.20;99.90